sensor_id;sensor_type;location;lat;lon;timestamp;temperature;humidity
1123;DHT22;548;48.778;9.252;2023-04-12T00:01:50;10.30;99.90
1123;DHT22;548;48.778;9.252;2023-04-12T00:04:16;10.20;99.90
1123;DHT22;548;48.778;9.252;2023-04-12T00:06:43;10.20;99.90
1123;DHT22;548;48.778;9.252;2023-04-12T00:09:13;10.10;99.90
1123;DHT22;548;48.778;9.252;2023-04-12T00:11:42;10.10;99.90
1123;DHT22;548;48.778;9.252;2023-04-12T00:14:08;10.00;99.90
1123;DHT22;548;48.778;9.252;2023-04-12T00:16:35;10.00;99.90
1123;DHT22;548;48.778;9.252;2023-04-12T00:19:03;10.00;99.90
1123;DHT22;548;48.778;9.252;2023-04-12T00:21:31;9.90;99.90
1123;DHT22;548;48.778;9.252;2023-04-12T00:23:58;9.80;99.90
1123;DHT22;548;48.778;9.252;2023-04-12T00:26:25;9.70;99.90
1123;DHT22;548;48.778;9.252;2023-04-12T00:28:53;9.60;99.90
1123;DHT22;548;48.778;9.252;2023-04-12T00:31:20;9.60;99.90
1123;DHT22;548;48.778;9.252;2023-04-12T00:33:47;9.60;99.90
1123;DHT22;548;48.778;9.252;2023-04-12T00:36:13;9.60;99.90
1123;DHT22;548;48.778;9.252;2023-04-12T00:38:40;9.70;99.90
1123;DHT22;548;48.778;9.252;2023-04-12T00:41:07;9.70;99.90
1123;DHT22;548;48.778;9.252;2023-04-12T00:43:33;9.70;99.90
1123;DHT22;548;48.778;9.252;2023-04-12T00:46:02;9.80;99.90
1123;DHT22;548;48.778;9.252;2023-04-12T00:48:30;9.70;99.90
1123;DHT22;548;48.778;9.252;2023-04-12T00:50:57;9.70;99.90
1123;DHT22;548;48.778;9.252;2023-04-12T00:53:23;9.60;99.90
1123;DHT22;548;48.778;9.252;2023-04-12T00:55:50;9.50;99.90
1123;DHT22;548;48.778;9.252;2023-04-12T00:58:17;9.40;99.90
1123;DHT22;548;48.778;9.252;2023-04-12T01:00:45;9.30;99.90
1123;DHT22;548;48.778;9.252;2023-04-12T01:03:19;9.30;99.90
1123;DHT22;548;48.778;9.252;2023-04-12T01:05:55;9.20;99.90
1123;DHT22;548;48.778;9.252;2023-04-12T01:08:33;9.10;99.90
1123;DHT22;548;48.778;9.252;2023-04-12T01:11:12;9.20;99.90
1123;DHT22;548;48.778;9.252;2023-04-12T01:13:44;9.10;99.90
1123;DHT22;548;48.778;9.252;2023-04-12T01:16:13;9.10;99.90
1123;DHT22;548;48.778;9.252;2023-04-12T01:18:45;9.00;99.90
1123;DHT22;548;48.778;9.252;2023-04-12T01:21:24;8.90;99.90
1123;DHT22;548;48.778;9.252;2023-04-12T01:24:03;9.00;99.90
1123;DHT22;548;48.778;9.252;2023-04-12T01:26:41;8.90;99.90
1123;DHT22;548;48.778;9.252;2023-04-12T01:29:13;8.90;99.90
1123;DHT22;548;48.778;9.252;2023-04-12T01:31:41;8.90;99.90
1123;DHT22;548;48.778;9.252;2023-04-12T01:34:11;8.90;99.90
1123;DHT22;548;48.778;9.252;2023-04-12T01:36:38;8.80;99.90
1123;DHT22;548;48.778;9.252;2023-04-12T01:39:06;8.80;99.90
1123;DHT22;548;48.778;9.252;2023-04-12T01:41:38;8.80;99.90
1123;DHT22;548;48.778;9.252;2023-04-12T01:44:06;8.90;99.90
1123;DHT22;548;48.778;9.252;2023-04-12T01:46:34;8.80;99.90
1123;DHT22;548;48.778;9.252;2023-04-12T01:49:02;8.80;99.90
1123;DHT22;548;48.778;9.252;2023-04-12T01:51:36;8.80;99.90
1123;DHT22;548;48.778;9.252;2023-04-12T01:54:07;8.70;99.90
1123;DHT22;548;48.778;9.252;2023-04-12T01:56:37;8.70;99.90
1123;DHT22;548;48.778;9.252;2023-04-12T01:59:06;8.70;99.90
1123;DHT22;548;48.778;9.252;2023-04-12T02:01:35;8.60;99.90
1123;DHT22;548;48.778;9.252;2023-04-12T02:04:03;8.60;99.90
1123;DHT22;548;48.778;9.252;2023-04-12T02:06:32;8.60;99.90
1123;DHT22;548;48.778;9.252;2023-04-12T02:09:00;8.60;99.90
1123;DHT22;548;48.778;9.252;2023-04-12T02:11:27;8.60;99.90
1123;DHT22;548;48.778;9.252;2023-04-12T02:13:54;8.60;99.90
1123;DHT22;548;48.778;9.252;2023-04-12T02:16:21;8.60;99.90
1123;DHT22;548;48.778;9.252;2023-04-12T02:18:49;8.50;99.90
1123;DHT22;548;48.778;9.252;2023-04-12T02:21:16;8.50;99.90
1123;DHT22;548;48.778;9.252;2023-04-12T02:23:43;8.40;99.90
1123;DHT22;548;48.778;9.252;2023-04-12T02:26:09;8.50;99.90
1123;DHT22;548;48.778;9.252;2023-04-12T02:28:36;8.40;99.90
1123;DHT22;548;48.778;9.252;2023-04-12T02:31:04;8.40;99.90
1123;DHT22;548;48.778;9.252;2023-04-12T02:33:31;8.40;99.90
1123;DHT22;548;48.778;9.252;2023-04-12T02:36:00;8.40;99.90
1123;DHT22;548;48.778;9.252;2023-04-12T02:38:27;8.30;99.90
1123;DHT22;548;48.778;9.252;2023-04-12T02:40:54;8.30;99.90
1123;DHT22;548;48.778;9.252;2023-04-12T02:43:21;8.30;99.90
1123;DHT22;548;48.778;9.252;2023-04-12T02:45:48;8.30;99.90
1123;DHT22;548;48.778;9.252;2023-04-12T02:48:14;8.30;99.90
1123;DHT22;548;48.778;9.252;2023-04-12T02:50:41;8.30;99.90
1123;DHT22;548;48.778;9.252;2023-04-12T02:53:09;8.40;99.90
1123;DHT22;548;48.778;9.252;2023-04-12T02:55:37;8.40;99.90
1123;DHT22;548;48.778;9.252;2023-04-12T02:58:04;8.40;99.90
1123;DHT22;548;48.778;9.252;2023-04-12T03:00:31;8.40;99.90
1123;DHT22;548;48.778;9.252;2023-04-12T03:02:58;8.40;99.90
1123;DHT22;548;48.778;9.252;2023-04-12T03:05:25;8.30;99.90
1123;DHT22;548;48.778;9.252;2023-04-12T03:07:52;8.40;99.90
1123;DHT22;548;48.778;9.252;2023-04-12T03:10:21;8.40;99.90
1123;DHT22;548;48.778;9.252;2023-04-12T03:12:47;8.30;99.90
1123;DHT22;548;48.778;9.252;2023-04-12T03:15:14;8.40;99.90
1123;DHT22;548;48.778;9.252;2023-04-12T03:17:42;8.40;99.90
1123;DHT22;548;48.778;9.252;2023-04-12T03:20:09;8.50;99.90
1123;DHT22;548;48.778;9.252;2023-04-12T03:22:36;8.40;99.90
1123;DHT22;548;48.778;9.252;2023-04-12T03:25:03;8.40;99.90
1123;DHT22;548;48.778;9.252;2023-04-12T03:27:31;8.40;99.90
1123;DHT22;548;48.778;9.252;2023-04-12T03:29:58;8.50;99.90
1123;DHT22;548;48.778;9.252;2023-04-12T03:32:25;8.40;99.90
1123;DHT22;548;48.778;9.252;2023-04-12T03:34:51;8.50;99.90
1123;DHT22;548;48.778;9.252;2023-04-12T03:37:18;8.50;99.90
1123;DHT22;548;48.778;9.252;2023-04-12T03:39:45;8.50;99.90
1123;DHT22;548;48.778;9.252;2023-04-12T03:42:12;8.50;99.90
1123;DHT22;548;48.778;9.252;2023-04-12T03:44:40;8.50;99.90
1123;DHT22;548;48.778;9.252;2023-04-12T03:47:07;8.50;99.90
1123;DHT22;548;48.778;9.252;2023-04-12T03:49:34;8.60;99.90
1123;DHT22;548;48.778;9.252;2023-04-12T03:52:04;8.60;99.90
1123;DHT22;548;48.778;9.252;2023-04-12T03:54:31;8.50;99.90
1123;DHT22;548;48.778;9.252;2023-04-12T03:56:58;8.50;99.90
1123;DHT22;548;48.778;9.252;2023-04-12T03:59:26;8.50;99.90
1123;DHT22;548;48.778;9.252;2023-04-12T04:01:54;8.50;99.90
1123;DHT22;548;48.778;9.252;2023-04-12T04:04:21;8.50;99.90
1123;DHT22;548;48.778;9.252;2023-04-12T04:06:48;8.50;99.90
1123;DHT22;548;48.778;9.252;2023-04-12T04:09:15;8.50;99.90
1123;DHT22;548;48.778;9.252;2023-04-12T04:11:42;8.50;99.90
1123;DHT22;548;48.778;9.252;2023-04-12T04:14:09;8.50;99.90
1123;DHT22;548;48.778;9.252;2023-04-12T04:16:35;8.50;99.90
1123;DHT22;548;48.778;9.252;2023-04-12T04:19:03;8.40;99.90
1123;DHT22;548;48.778;9.252;2023-04-12T04:21:30;8.50;99.90
1123;DHT22;548;48.778;9.252;2023-04-12T04:23:58;8.50;99.90
1123;DHT22;548;48.778;9.252;2023-04-12T04:26:25;8.40;99.90
1123;DHT22;548;48.778;9.252;2023-04-12T04:28:57;8.50;99.90
1123;DHT22;548;48.778;9.252;2023-04-12T04:31:26;8.50;99.90
1123;DHT22;548;48.778;9.252;2023-04-12T04:33:59;8.40;99.90
1123;DHT22;548;48.778;9.252;2023-04-12T04:36:27;8.40;99.90
1123;DHT22;548;48.778;9.252;2023-04-12T04:38:54;8.40;99.90
1123;DHT22;548;48.778;9.252;2023-04-12T04:41:22;8.40;99.90
1123;DHT22;548;48.778;9.252;2023-04-12T04:43:49;8.40;99.90
1123;DHT22;548;48.778;9.252;2023-04-12T04:46:16;8.40;99.90
1123;DHT22;548;48.778;9.252;2023-04-12T04:48:45;8.40;99.90
1123;DHT22;548;48.778;9.252;2023-04-12T04:51:12;8.50;99.90
1123;DHT22;548;48.778;9.252;2023-04-12T04:53:40;8.40;99.90
1123;DHT22;548;48.778;9.252;2023-04-12T04:56:08;8.40;99.90
1123;DHT22;548;48.778;9.252;2023-04-12T04:58:35;8.40;99.90
1123;DHT22;548;48.778;9.252;2023-04-12T05:01:01;8.40;99.90
1123;DHT22;548;48.778;9.252;2023-04-12T05:03:29;8.50;99.90
1123;DHT22;548;48.778;9.252;2023-04-12T05:05:58;8.50;99.90
1123;DHT22;548;48.778;9.252;2023-04-12T05:08:26;8.60;99.90
1123;DHT22;548;48.778;9.252;2023-04-12T05:10:55;8.60;99.90
1123;DHT22;548;48.778;9.252;2023-04-12T05:13:22;8.60;99.90
1123;DHT22;548;48.778;9.252;2023-04-12T05:15:49;8.60;99.90
1123;DHT22;548;48.778;9.252;2023-04-12T05:18:16;8.60;99.90
1123;DHT22;548;48.778;9.252;2023-04-12T05:20:43;8.60;99.90
1123;DHT22;548;48.778;9.252;2023-04-12T05:23:10;8.70;99.90
1123;DHT22;548;48.778;9.252;2023-04-12T05:25:43;8.70;99.90
1123;DHT22;548;48.778;9.252;2023-04-12T05:28:13;8.60;99.90
1123;DHT22;548;48.778;9.252;2023-04-12T05:30:40;8.60;99.90
1123;DHT22;548;48.778;9.252;2023-04-12T05:33:06;8.70;99.90
1123;DHT22;548;48.778;9.252;2023-04-12T05:35:33;8.70;99.90
1123;DHT22;548;48.778;9.252;2023-04-12T05:38:00;8.70;99.90
1123;DHT22;548;48.778;9.252;2023-04-12T05:40:27;8.70;99.90
1123;DHT22;548;48.778;9.252;2023-04-12T05:42:56;8.70;99.90
1123;DHT22;548;48.778;9.252;2023-04-12T05:45:24;8.70;99.90
1123;DHT22;548;48.778;9.252;2023-04-12T05:47:50;8.80;99.90
1123;DHT22;548;48.778;9.252;2023-04-12T05:50:17;8.80;99.90
1123;DHT22;548;48.778;9.252;2023-04-12T05:52:45;8.80;99.90
1123;DHT22;548;48.778;9.252;2023-04-12T05:55:13;8.90;99.90
1123;DHT22;548;48.778;9.252;2023-04-12T05:57:41;8.90;99.90
1123;DHT22;548;48.778;9.252;2023-04-12T06:00:09;8.90;99.90
1123;DHT22;548;48.778;9.252;2023-04-12T06:02:39;8.90;99.90
1123;DHT22;548;48.778;9.252;2023-04-12T06:05:07;8.90;99.90
1123;DHT22;548;48.778;9.252;2023-04-12T06:07:34;9.00;99.90
1123;DHT22;548;48.778;9.252;2023-04-12T06:10:01;9.00;99.90
1123;DHT22;548;48.778;9.252;2023-04-12T06:12:28;9.10;99.90
1123;DHT22;548;48.778;9.252;2023-04-12T06:14:54;9.10;99.90
1123;DHT22;548;48.778;9.252;2023-04-12T06:17:22;9.10;99.90
1123;DHT22;548;48.778;9.252;2023-04-12T06:19:50;9.10;99.90
1123;DHT22;548;48.778;9.252;2023-04-12T06:22:17;9.10;99.90
1123;DHT22;548;48.778;9.252;2023-04-12T06:24:43;9.00;99.90
1123;DHT22;548;48.778;9.252;2023-04-12T06:27:10;9.10;99.90
1123;DHT22;548;48.778;9.252;2023-04-12T06:29:37;9.10;99.90
1123;DHT22;548;48.778;9.252;2023-04-12T06:32:04;9.10;99.90
1123;DHT22;548;48.778;9.252;2023-04-12T06:34:30;9.20;99.90
1123;DHT22;548;48.778;9.252;2023-04-12T06:36:58;9.20;99.90
1123;DHT22;548;48.778;9.252;2023-04-12T06:39:25;9.20;99.90
1123;DHT22;548;48.778;9.252;2023-04-12T06:41:52;9.30;99.90
1123;DHT22;548;48.778;9.252;2023-04-12T06:44:22;9.30;99.90
1123;DHT22;548;48.778;9.252;2023-04-12T06:46:48;9.40;99.90
1123;DHT22;548;48.778;9.252;2023-04-12T06:49:15;9.40;99.90
1123;DHT22;548;48.778;9.252;2023-04-12T06:51:43;9.40;99.90
1123;DHT22;548;48.778;9.252;2023-04-12T06:54:12;9.40;99.90
1123;DHT22;548;48.778;9.252;2023-04-12T06:56:39;9.40;99.90
1123;DHT22;548;48.778;9.252;2023-04-12T06:59:06;9.50;99.90
1123;DHT22;548;48.778;9.252;2023-04-12T07:01:33;9.50;99.90
1123;DHT22;548;48.778;9.252;2023-04-12T07:04:00;9.50;99.90
1123;DHT22;548;48.778;9.252;2023-04-12T07:06:27;9.50;99.90
1123;DHT22;548;48.778;9.252;2023-04-12T07:08:54;9.50;99.90
1123;DHT22;548;48.778;9.252;2023-04-12T07:11:22;9.50;99.90
1123;DHT22;548;48.778;9.252;2023-04-12T07:13:49;9.50;99.90
1123;DHT22;548;48.778;9.252;2023-04-12T07:16:16;9.60;99.90
1123;DHT22;548;48.778;9.252;2023-04-12T07:18:43;9.60;99.90
1123;DHT22;548;48.778;9.252;2023-04-12T07:21:10;9.70;99.90
1123;DHT22;548;48.778;9.252;2023-04-12T07:23:38;9.70;99.90
1123;DHT22;548;48.778;9.252;2023-04-12T07:26:05;9.70;99.90
1123;DHT22;548;48.778;9.252;2023-04-12T07:28:33;9.70;99.90
1123;DHT22;548;48.778;9.252;2023-04-12T07:31:03;9.70;99.90
1123;DHT22;548;48.778;9.252;2023-04-12T07:33:30;9.80;99.90
1123;DHT22;548;48.778;9.252;2023-04-12T07:35:57;10.00;99.90
1123;DHT22;548;48.778;9.252;2023-04-12T07:38:25;10.10;99.90
1123;DHT22;548;48.778;9.252;2023-04-12T07:40:52;10.10;99.90
1123;DHT22;548;48.778;9.252;2023-04-12T07:43:19;10.10;99.90
1123;DHT22;548;48.778;9.252;2023-04-12T07:45:47;10.00;99.90
1123;DHT22;548;48.778;9.252;2023-04-12T07:48:14;10.00;99.90
1123;DHT22;548;48.778;9.252;2023-04-12T07:50:41;10.00;99.90
1123;DHT22;548;48.778;9.252;2023-04-12T07:53:18;10.10;99.90
1123;DHT22;548;48.778;9.252;2023-04-12T07:55:45;10.10;99.90
1123;DHT22;548;48.778;9.252;2023-04-12T07:58:12;10.10;99.90
1123;DHT22;548;48.778;9.252;2023-04-12T08:00:38;10.10;99.90
1123;DHT22;548;48.778;9.252;2023-04-12T08:03:06;10.20;99.90
1123;DHT22;548;48.778;9.252;2023-04-12T08:05:33;10.20;99.90
1123;DHT22;548;48.778;9.252;2023-04-12T08:08:00;10.20;99.90
1123;DHT22;548;48.778;9.252;2023-04-12T08:10:27;10.30;99.90
1123;DHT22;548;48.778;9.252;2023-04-12T08:12:54;10.30;99.90
1123;DHT22;548;48.778;9.252;2023-04-12T08:15:21;10.30;99.90
1123;DHT22;548;48.778;9.252;2023-04-12T08:17:48;10.40;99.90
1123;DHT22;548;48.778;9.252;2023-04-12T08:20:16;10.50;99.90
1123;DHT22;548;48.778;9.252;2023-04-12T08:22:43;10.60;99.90
1123;DHT22;548;48.778;9.252;2023-04-12T08:25:10;10.60;99.90
1123;DHT22;548;48.778;9.252;2023-04-12T08:27:38;10.60;99.90
1123;DHT22;548;48.778;9.252;2023-04-12T08:30:06;10.60;99.90
1123;DHT22;548;48.778;9.252;2023-04-12T08:32:33;10.60;99.90
1123;DHT22;548;48.778;9.252;2023-04-12T08:35:01;10.60;99.90
1123;DHT22;548;48.778;9.252;2023-04-12T08:37:29;10.70;99.90
1123;DHT22;548;48.778;9.252;2023-04-12T08:39:58;10.70;99.90
1123;DHT22;548;48.778;9.252;2023-04-12T08:42:25;10.80;99.90
1123;DHT22;548;48.778;9.252;2023-04-12T08:44:52;10.80;99.90
1123;DHT22;548;48.778;9.252;2023-04-12T08:47:20;10.90;99.90
1123;DHT22;548;48.778;9.252;2023-04-12T08:49:47;10.90;99.90
1123;DHT22;548;48.778;9.252;2023-04-12T08:52:14;11.00;99.90
1123;DHT22;548;48.778;9.252;2023-04-12T08:54:42;11.10;99.90
1123;DHT22;548;48.778;9.252;2023-04-12T08:57:09;11.20;99.90
1123;DHT22;548;48.778;9.252;2023-04-12T08:59:37;11.20;99.90
1123;DHT22;548;48.778;9.252;2023-04-12T09:02:04;11.20;99.90
1123;DHT22;548;48.778;9.252;2023-04-12T09:04:31;11.20;99.90
1123;DHT22;548;48.778;9.252;2023-04-12T09:06:57;11.20;99.90
1123;DHT22;548;48.778;9.252;2023-04-12T09:09:39;11.20;99.90
1123;DHT22;548;48.778;9.252;2023-04-12T09:12:09;11.20;99.90
1123;DHT22;548;48.778;9.252;2023-04-12T09:14:37;11.30;99.90
1123;DHT22;548;48.778;9.252;2023-04-12T09:17:04;11.30;99.90
1123;DHT22;548;48.778;9.252;2023-04-12T09:19:32;11.30;99.90
1123;DHT22;548;48.778;9.252;2023-04-12T09:21:59;11.20;99.90
1123;DHT22;548;48.778;9.252;2023-04-12T09:24:26;11.20;99.90
1123;DHT22;548;48.778;9.252;2023-04-12T09:27:01;11.30;99.90
1123;DHT22;548;48.778;9.252;2023-04-12T09:29:30;11.30;99.90
1123;DHT22;548;48.778;9.252;2023-04-12T09:32:01;11.40;99.90
1123;DHT22;548;48.778;9.252;2023-04-12T09:34:28;11.50;99.90
1123;DHT22;548;48.778;9.252;2023-04-12T09:36:55;11.60;99.90
1123;DHT22;548;48.778;9.252;2023-04-12T09:39:31;11.70;99.90
1123;DHT22;548;48.778;9.252;2023-04-12T09:42:05;11.80;99.90
1123;DHT22;548;48.778;9.252;2023-04-12T09:44:33;11.70;99.90
1123;DHT22;548;48.778;9.252;2023-04-12T09:47:01;11.80;99.90
1123;DHT22;548;48.778;9.252;2023-04-12T09:49:36;11.90;99.90
1123;DHT22;548;48.778;9.252;2023-04-12T09:52:05;11.90;99.90
1123;DHT22;548;48.778;9.252;2023-04-12T09:54:36;12.00;99.90
1123;DHT22;548;48.778;9.252;2023-04-12T09:57:05;12.10;99.90
1123;DHT22;548;48.778;9.252;2023-04-12T09:59:36;12.20;99.90
1123;DHT22;548;48.778;9.252;2023-04-12T10:02:07;12.30;99.90
1123;DHT22;548;48.778;9.252;2023-04-12T10:04:38;12.30;99.90
1123;DHT22;548;48.778;9.252;2023-04-12T10:07:06;12.50;99.90
1123;DHT22;548;48.778;9.252;2023-04-12T10:09:33;12.60;99.90
1123;DHT22;548;48.778;9.252;2023-04-12T10:12:01;12.60;99.90
1123;DHT22;548;48.778;9.252;2023-04-12T10:14:29;12.80;99.90
1123;DHT22;548;48.778;9.252;2023-04-12T10:16:58;12.90;99.90
1123;DHT22;548;48.778;9.252;2023-04-12T10:19:27;13.30;99.90
1123;DHT22;548;48.778;9.252;2023-04-12T10:21:54;13.70;99.90
1123;DHT22;548;48.778;9.252;2023-04-12T10:24:22;13.90;99.90
1123;DHT22;548;48.778;9.252;2023-04-12T10:26:49;14.20;99.90
1123;DHT22;548;48.778;9.252;2023-04-12T10:29:24;14.40;99.90
1123;DHT22;548;48.778;9.252;2023-04-12T10:31:51;14.70;99.90
1123;DHT22;548;48.778;9.252;2023-04-12T10:34:27;14.90;99.90
1123;DHT22;548;48.778;9.252;2023-04-12T10:36:55;15.20;99.90
1123;DHT22;548;48.778;9.252;2023-04-12T10:39:36;15.60;99.90
1123;DHT22;548;48.778;9.252;2023-04-12T10:42:21;15.90;99.90
1123;DHT22;548;48.778;9.252;2023-04-12T10:44:49;16.10;99.90
1123;DHT22;548;48.778;9.252;2023-04-12T10:47:55;16.30;99.90
1123;DHT22;548;48.778;9.252;2023-04-12T10:50:27;16.30;99.90
1123;DHT22;548;48.778;9.252;2023-04-12T10:53:22;16.60;99.90
1123;DHT22;548;48.778;9.252;2023-04-12T10:55:50;16.30;99.90
1123;DHT22;548;48.778;9.252;2023-04-12T11:01:22;16.10;99.90
1123;DHT22;548;48.778;9.252;2023-04-12T11:07:06;15.90;99.90
1123;DHT22;548;48.778;9.252;2023-04-12T11:09:40;16.00;99.90
1123;DHT22;548;48.778;9.252;2023-04-12T11:12:11;16.10;99.90
1123;DHT22;548;48.778;9.252;2023-04-12T11:14:43;16.20;99.90
1123;DHT22;548;48.778;9.252;2023-04-12T11:17:23;16.20;99.90
1123;DHT22;548;48.778;9.252;2023-04-12T11:19:52;16.50;99.90
1123;DHT22;548;48.778;9.252;2023-04-12T11:22:23;16.60;99.90
1123;DHT22;548;48.778;9.252;2023-04-12T11:24:51;16.50;99.90
1123;DHT22;548;48.778;9.252;2023-04-12T11:27:19;16.30;99.90
1123;DHT22;548;48.778;9.252;2023-04-12T11:29:48;16.20;99.90
1123;DHT22;548;48.778;9.252;2023-04-12T11:32:15;16.00;99.90
1123;DHT22;548;48.778;9.252;2023-04-12T11:34:43;16.00;99.90
1123;DHT22;548;48.778;9.252;2023-04-12T11:37:10;16.10;99.90
1123;DHT22;548;48.778;9.252;2023-04-12T11:39:39;16.00;99.90
1123;DHT22;548;48.778;9.252;2023-04-12T11:42:07;16.10;99.90
1123;DHT22;548;48.778;9.252;2023-04-12T11:44:39;16.10;99.90
1123;DHT22;548;48.778;9.252;2023-04-12T11:47:12;16.40;99.90
1123;DHT22;548;48.778;9.252;2023-04-12T11:49:42;16.60;99.90
1123;DHT22;548;48.778;9.252;2023-04-12T11:52:09;16.60;99.90
1123;DHT22;548;48.778;9.252;2023-04-12T11:54:44;16.80;99.90
1123;DHT22;548;48.778;9.252;2023-04-12T11:57:12;16.70;99.90
1123;DHT22;548;48.778;9.252;2023-04-12T11:59:39;16.70;99.90
1123;DHT22;548;48.778;9.252;2023-04-12T12:02:08;16.70;99.90
1123;DHT22;548;48.778;9.252;2023-04-12T12:04:35;16.60;99.90
1123;DHT22;548;48.778;9.252;2023-04-12T12:07:02;16.80;99.90
1123;DHT22;548;48.778;9.252;2023-04-12T12:09:31;16.70;99.90
1123;DHT22;548;48.778;9.252;2023-04-12T12:11:59;17.00;99.90
1123;DHT22;548;48.778;9.252;2023-04-12T12:14:26;17.40;99.90
1123;DHT22;548;48.778;9.252;2023-04-12T12:16:55;17.50;99.90
1123;DHT22;548;48.778;9.252;2023-04-12T12:19:29;17.80;99.90
1123;DHT22;548;48.778;9.252;2023-04-12T12:22:20;17.80;99.90
1123;DHT22;548;48.778;9.252;2023-04-12T12:24:51;17.40;99.90
1123;DHT22;548;48.778;9.252;2023-04-12T12:27:21;17.40;99.90
1123;DHT22;548;48.778;9.252;2023-04-12T12:29:49;17.60;99.90
1123;DHT22;548;48.778;9.252;2023-04-12T12:32:18;17.90;99.90
1123;DHT22;548;48.778;9.252;2023-04-12T12:34:52;17.90;99.90
1123;DHT22;548;48.778;9.252;2023-04-12T12:37:20;18.30;99.90
1123;DHT22;548;48.778;9.252;2023-04-12T12:40:05;18.50;99.90
1123;DHT22;548;48.778;9.252;2023-04-12T12:42:43;18.10;99.90
1123;DHT22;548;48.778;9.252;2023-04-12T12:45:11;17.60;99.90
1123;DHT22;548;48.778;9.252;2023-04-12T12:47:45;17.80;99.90
1123;DHT22;548;48.778;9.252;2023-04-12T12:50:12;17.80;99.90
1123;DHT22;548;48.778;9.252;2023-04-12T12:52:40;18.00;99.90
1123;DHT22;548;48.778;9.252;2023-04-12T12:55:08;18.20;99.20
1123;DHT22;548;48.778;9.252;2023-04-12T12:57:34;18.50;99.40
1123;DHT22;548;48.778;9.252;2023-04-12T13:00:03;18.60;98.30
1123;DHT22;548;48.778;9.252;2023-04-12T13:02:30;18.60;98.50
1123;DHT22;548;48.778;9.252;2023-04-12T13:04:58;18.40;98.80
1123;DHT22;548;48.778;9.252;2023-04-12T13:07:26;18.10;99.10
1123;DHT22;548;48.778;9.252;2023-04-12T13:09:52;17.70;99.60
1123;DHT22;548;48.778;9.252;2023-04-12T13:12:19;17.70;99.60
1123;DHT22;548;48.778;9.252;2023-04-12T13:14:46;17.60;99.90
1123;DHT22;548;48.778;9.252;2023-04-12T13:17:14;17.50;99.50
1123;DHT22;548;48.778;9.252;2023-04-12T13:19:41;17.50;99.50
1123;DHT22;548;48.778;9.252;2023-04-12T13:22:08;17.60;99.70
1123;DHT22;548;48.778;9.252;2023-04-12T13:24:34;17.60;99.20
1123;DHT22;548;48.778;9.252;2023-04-12T13:27:01;17.30;99.90
1123;DHT22;548;48.778;9.252;2023-04-12T13:29:28;17.30;99.90
1123;DHT22;548;48.778;9.252;2023-04-12T13:31:55;17.10;99.90
1123;DHT22;548;48.778;9.252;2023-04-12T13:34:23;17.00;99.90
1123;DHT22;548;48.778;9.252;2023-04-12T13:36:50;17.00;99.90
1123;DHT22;548;48.778;9.252;2023-04-12T13:39:17;17.20;99.90
1123;DHT22;548;48.778;9.252;2023-04-12T13:41:44;17.50;99.90
1123;DHT22;548;48.778;9.252;2023-04-12T13:44:10;17.90;99.90
1123;DHT22;548;48.778;9.252;2023-04-12T13:46:37;18.60;98.50
1123;DHT22;548;48.778;9.252;2023-04-12T13:49:04;18.90;97.90
1123;DHT22;548;48.778;9.252;2023-04-12T13:51:32;18.90;97.30
1123;DHT22;548;48.778;9.252;2023-04-12T13:53:59;18.80;97.60
1123;DHT22;548;48.778;9.252;2023-04-12T13:56:26;19.00;97.80
1123;DHT22;548;48.778;9.252;2023-04-12T13:58:52;18.90;97.40
1123;DHT22;548;48.778;9.252;2023-04-12T14:01:19;18.60;97.70
1123;DHT22;548;48.778;9.252;2023-04-12T14:03:48;17.90;98.80
1123;DHT22;548;48.778;9.252;2023-04-12T14:06:14;17.60;99.70
1123;DHT22;548;48.778;9.252;2023-04-12T14:08:42;17.60;99.60
1123;DHT22;548;48.778;9.252;2023-04-12T14:11:09;17.20;99.90
1123;DHT22;548;48.778;9.252;2023-04-12T14:13:36;16.90;99.90
1123;DHT22;548;48.778;9.252;2023-04-12T14:16:03;17.10;99.90
1123;DHT22;548;48.778;9.252;2023-04-12T14:18:31;17.10;99.90
1123;DHT22;548;48.778;9.252;2023-04-12T14:20:58;17.30;99.90
1123;DHT22;548;48.778;9.252;2023-04-12T14:23:24;17.50;99.90
1123;DHT22;548;48.778;9.252;2023-04-12T14:25:53;18.20;98.80
1123;DHT22;548;48.778;9.252;2023-04-12T14:28:20;18.40;98.00
1123;DHT22;548;48.778;9.252;2023-04-12T14:30:49;18.70;97.40
1123;DHT22;548;48.778;9.252;2023-04-12T14:33:16;18.70;97.30
1123;DHT22;548;48.778;9.252;2023-04-12T14:35:43;18.40;97.20
1123;DHT22;548;48.778;9.252;2023-04-12T14:38:10;18.50;97.60
1123;DHT22;548;48.778;9.252;2023-04-12T14:40:37;18.10;97.40
1123;DHT22;548;48.778;9.252;2023-04-12T14:43:05;18.00;98.20
1123;DHT22;548;48.778;9.252;2023-04-12T14:45:32;18.10;97.60
1123;DHT22;548;48.778;9.252;2023-04-12T14:47:58;18.30;97.70
1123;DHT22;548;48.778;9.252;2023-04-12T14:50:25;18.70;97.40
1123;DHT22;548;48.778;9.252;2023-04-12T14:52:52;18.70;97.00
1123;DHT22;548;48.778;9.252;2023-04-12T14:55:19;18.70;96.70
1123;DHT22;548;48.778;9.252;2023-04-12T14:57:45;18.80;96.60
1123;DHT22;548;48.778;9.252;2023-04-12T15:00:14;18.80;96.90
1123;DHT22;548;48.778;9.252;2023-04-12T15:02:41;19.00;96.00
1123;DHT22;548;48.778;9.252;2023-04-12T15:05:09;18.40;96.20
1123;DHT22;548;48.778;9.252;2023-04-12T15:07:36;18.20;96.90
1123;DHT22;548;48.778;9.252;2023-04-12T15:10:03;18.20;97.30
1123;DHT22;548;48.778;9.252;2023-04-12T15:12:30;18.20;97.20
1123;DHT22;548;48.778;9.252;2023-04-12T15:14:58;18.20;97.20
1123;DHT22;548;48.778;9.252;2023-04-12T15:17:29;18.20;97.50
1123;DHT22;548;48.778;9.252;2023-04-12T15:19:56;18.20;97.40
1123;DHT22;548;48.778;9.252;2023-04-12T15:22:23;17.90;97.40
1123;DHT22;548;48.778;9.252;2023-04-12T15:24:50;17.70;97.90
1123;DHT22;548;48.778;9.252;2023-04-12T15:27:17;17.50;99.90
1123;DHT22;548;48.778;9.252;2023-04-12T15:29:43;15.80;99.90
1123;DHT22;548;48.778;9.252;2023-04-12T15:32:10;13.90;99.90
1123;DHT22;548;48.778;9.252;2023-04-12T15:34:38;12.90;99.90
1123;DHT22;548;48.778;9.252;2023-04-12T15:37:05;12.60;99.90
1123;DHT22;548;48.778;9.252;2023-04-12T15:39:32;12.20;99.90
1123;DHT22;548;48.778;9.252;2023-04-12T15:42:00;11.90;99.90
1123;DHT22;548;48.778;9.252;2023-04-12T15:44:26;11.80;99.90
1123;DHT22;548;48.778;9.252;2023-04-12T15:46:56;11.70;99.90
1123;DHT22;548;48.778;9.252;2023-04-12T15:49:22;11.60;99.90
1123;DHT22;548;48.778;9.252;2023-04-12T15:51:52;11.70;99.90
1123;DHT22;548;48.778;9.252;2023-04-12T15:54:29;11.60;99.90
1123;DHT22;548;48.778;9.252;2023-04-12T15:56:56;11.60;99.90
1123;DHT22;548;48.778;9.252;2023-04-12T15:59:23;11.80;99.90
1123;DHT22;548;48.778;9.252;2023-04-12T16:01:50;11.90;99.90
1123;DHT22;548;48.778;9.252;2023-04-12T16:04:17;12.00;99.90
1123;DHT22;548;48.778;9.252;2023-04-12T16:06:44;12.10;99.90
1123;DHT22;548;48.778;9.252;2023-04-12T16:09:12;12.10;99.90
1123;DHT22;548;48.778;9.252;2023-04-12T16:11:39;12.20;99.90
1123;DHT22;548;48.778;9.252;2023-04-12T16:14:05;12.10;99.90
1123;DHT22;548;48.778;9.252;2023-04-12T16:16:33;12.20;99.90
1123;DHT22;548;48.778;9.252;2023-04-12T16:19:00;12.10;99.90
1123;DHT22;548;48.778;9.252;2023-04-12T16:21:27;12.20;99.90
1123;DHT22;548;48.778;9.252;2023-04-12T16:23:54;12.20;99.90
1123;DHT22;548;48.778;9.252;2023-04-12T16:26:22;12.20;99.90
1123;DHT22;548;48.778;9.252;2023-04-12T16:28:51;12.20;99.90
1123;DHT22;548;48.778;9.252;2023-04-12T16:31:18;12.30;99.90
1123;DHT22;548;48.778;9.252;2023-04-12T16:33:46;12.40;99.90
1123;DHT22;548;48.778;9.252;2023-04-12T16:36:13;12.40;99.90
1123;DHT22;548;48.778;9.252;2023-04-12T16:38:40;12.60;99.90